createdAt,value
2023-02-04T00:02:04.739Z,93.06
2023-02-04T00:04:31.154Z,92.55
2023-02-04T00:06:57.661Z,93.43
2023-02-04T00:09:24.074Z,93.87
2023-02-04T00:11:50.528Z,93.77
2023-02-04T00:14:16.940Z,94.59
2023-02-04T00:16:43.473Z,94.98
2023-02-04T00:19:09.866Z,97.85
2023-02-04T00:21:36.337Z,97.42
2023-02-04T00:24:02.854Z,97.47
2023-02-04T00:26:29.357Z,100.00
2023-02-04T00:28:56.220Z,100.00
2023-02-04T00:31:23.411Z,100.00
2023-02-04T00:33:49.950Z,100.00
2023-02-04T00:36:16.381Z,99.74
2023-02-04T00:38:42.849Z,99.03
2023-02-04T00:41:09.335Z,99.65
2023-02-04T00:43:35.792Z,99.35
2023-02-04T00:46:04.878Z,98.68
2023-02-04T00:48:31.321Z,98.13
2023-02-04T00:50:57.726Z,97.45
2023-02-04T00:53:24.171Z,97.00
2023-02-04T00:55:50.614Z,96.63
2023-02-04T00:58:17.077Z,96.41
2023-02-04T01:00:43.829Z,95.70
2023-02-04T01:03:10.387Z,96.13
2023-02-04T01:05:37.010Z,95.79
2023-02-04T01:08:05.079Z,96.82
2023-02-04T01:10:31.968Z,96.87
2023-02-04T01:12:58.621Z,96.36
2023-02-04T01:15:26.776Z,96.05
2023-02-04T01:17:53.819Z,95.54
2023-02-04T01:20:20.409Z,94.99
2023-02-04T01:22:48.615Z,94.41
2023-02-04T01:25:15.214Z,94.50
2023-02-04T01:27:42.604Z,93.85
2023-02-04T01:30:10.963Z,94.49
2023-02-04T01:32:37.566Z,93.92
2023-02-04T01:35:04.559Z,93.35
2023-02-04T01:37:32.696Z,93.31
2023-02-04T01:39:59.197Z,93.24
2023-02-04T01:42:25.656Z,92.75
2023-02-04T01:44:52.848Z,92.25
2023-02-04T01:47:21.547Z,92.48
2023-02-04T01:49:52.671Z,91.48
2023-02-04T01:52:20.022Z,91.51
2023-02-04T01:54:46.966Z,91.04
2023-02-04T01:57:16.068Z,90.31
2023-02-04T01:59:47.168Z,90.67
2023-02-04T02:02:43.522Z,91.19
2023-02-04T02:05:13.115Z,90.18
2023-02-04T02:07:39.791Z,89.55
2023-02-04T02:10:08.661Z,89.03
2023-02-04T02:12:36.735Z,89.44
2023-02-04T02:15:04.060Z,89.00
2023-02-04T02:17:30.970Z,89.36
2023-02-04T02:19:57.407Z,88.72
2023-02-04T02:22:33.273Z,87.87
2023-02-04T02:24:59.919Z,88.35
2023-02-04T02:27:26.357Z,87.97
2023-02-04T02:29:52.917Z,87.47
2023-02-04T02:32:19.476Z,88.29
2023-02-04T02:34:46.821Z,88.10
2023-02-04T02:37:13.964Z,87.86
2023-02-04T02:39:44.316Z,87.54
2023-02-04T02:42:16.115Z,88.67
2023-02-04T02:44:45.714Z,88.78
2023-02-04T02:47:17.280Z,89.87
2023-02-04T02:49:44.404Z,89.73
2023-02-04T02:52:12.690Z,89.95
2023-02-04T02:54:40.516Z,89.56
2023-02-04T02:57:13.950Z,89.66
2023-02-04T02:59:41.040Z,90.12
2023-02-04T03:02:09.851Z,89.23
2023-02-04T03:04:41.754Z,89.00
2023-02-04T03:07:10.846Z,88.72
2023-02-04T03:09:37.573Z,88.09
2023-02-04T03:12:06.200Z,88.68
2023-02-04T03:14:35.104Z,88.12
2023-02-04T03:17:03.700Z,87.74
2023-02-04T03:19:30.292Z,88.11
2023-02-04T03:21:57.964Z,87.94
2023-02-04T03:24:25.033Z,88.62
2023-02-04T03:26:51.967Z,88.54
2023-02-04T03:29:18.602Z,89.66
2023-02-04T03:31:45.262Z,89.86
2023-02-04T03:34:11.812Z,89.28
2023-02-04T03:36:38.347Z,89.12
2023-02-04T03:39:04.873Z,88.62
2023-02-04T03:41:32.258Z,89.09
2023-02-04T03:43:58.747Z,88.70
2023-02-04T03:46:25.926Z,88.65
2023-02-04T03:48:52.528Z,89.35
2023-02-04T03:51:18.931Z,88.67
2023-02-04T03:53:45.481Z,88.88
2023-02-04T03:56:11.918Z,89.16
2023-02-04T03:58:38.383Z,88.94
2023-02-04T04:01:04.974Z,88.73
2023-02-04T04:03:31.374Z,88.67
2023-02-04T04:05:57.864Z,87.46
2023-02-04T04:08:25.323Z,87.95
2023-02-04T04:10:51.754Z,87.26
2023-02-04T04:13:18.205Z,87.11
2023-02-04T04:15:45.409Z,86.88
2023-02-04T04:18:11.863Z,86.78
2023-02-04T04:20:38.582Z,87.00
2023-02-04T04:23:05.060Z,86.73
2023-02-04T04:25:31.509Z,87.04
2023-02-04T04:27:58.032Z,86.79
2023-02-04T04:30:25.034Z,87.28
2023-02-04T04:32:51.457Z,87.15
2023-02-04T04:35:17.871Z,87.68
2023-02-04T04:37:44.294Z,87.26
2023-02-04T04:40:12.740Z,87.39
2023-02-04T04:42:39.186Z,87.35
2023-02-04T04:45:08.960Z,87.93
2023-02-04T04:47:35.392Z,87.49
2023-02-04T04:50:01.863Z,87.64
2023-02-04T04:52:28.258Z,87.65
2023-02-04T04:54:57.076Z,87.40
2023-02-04T04:57:23.556Z,87.86
2023-02-04T04:59:49.987Z,87.28
2023-02-04T05:02:16.457Z,87.13
2023-02-04T05:04:42.976Z,86.82
2023-02-04T05:07:09.512Z,87.73
2023-02-04T05:09:35.941Z,87.71
2023-02-04T05:12:02.744Z,87.17
2023-02-04T05:14:29.189Z,87.83
2023-02-04T05:16:55.720Z,87.39
2023-02-04T05:19:22.130Z,87.76
2023-02-04T05:21:48.575Z,87.69
2023-02-04T05:24:15.051Z,87.34
2023-02-04T05:26:41.552Z,87.40
2023-02-04T05:29:10.397Z,87.21
2023-02-04T05:31:37.240Z,87.47
2023-02-04T05:34:03.671Z,87.23
2023-02-04T05:36:30.133Z,87.97
2023-02-04T05:38:56.592Z,87.17
2023-02-04T05:41:23.027Z,87.61
2023-02-04T05:43:49.472Z,86.92
2023-02-04T05:46:15.934Z,86.91
2023-02-04T05:48:42.416Z,87.33
2023-02-04T05:51:08.814Z,87.13
2023-02-04T05:53:35.365Z,87.37
2023-02-04T05:56:02.247Z,87.41
2023-02-04T05:58:33.610Z,86.79
2023-02-04T06:01:04.486Z,87.24
2023-02-04T06:03:31.299Z,86.90
2023-02-04T06:05:57.793Z,86.75
2023-02-04T06:08:24.651Z,87.02
2023-02-04T06:10:51.110Z,87.88
2023-02-04T06:13:17.953Z,87.17
2023-02-04T06:15:44.366Z,87.03
2023-02-04T06:18:10.962Z,86.63
2023-02-04T06:20:37.416Z,86.50
2023-02-04T06:23:03.838Z,87.15
2023-02-04T06:25:30.393Z,86.94
2023-02-04T06:27:56.890Z,87.16
2023-02-04T06:30:23.418Z,88.08
2023-02-04T06:32:49.888Z,87.65
2023-02-04T06:35:16.574Z,88.23
2023-02-04T06:37:43.208Z,88.07
2023-02-04T06:40:10.969Z,87.98
2023-02-04T06:42:37.482Z,87.55
2023-02-04T06:45:05.043Z,87.95
2023-02-04T06:47:31.572Z,88.01
2023-02-04T06:49:57.977Z,87.88
2023-02-04T06:52:24.505Z,87.43
2023-02-04T06:54:50.983Z,87.11
2023-02-04T06:57:17.538Z,87.92
2023-02-04T06:59:44.040Z,88.32
2023-02-04T07:02:13.064Z,88.38
2023-02-04T07:04:39.551Z,88.55
2023-02-04T07:07:06.169Z,88.05
2023-02-04T07:09:32.641Z,87.86
2023-02-04T07:11:59.063Z,86.78
2023-02-04T07:14:25.529Z,86.92
2023-02-04T07:16:52.101Z,86.48
2023-02-04T07:19:20.229Z,86.83
2023-02-04T07:21:47.598Z,87.23
2023-02-04T07:24:14.017Z,87.21
2023-02-04T07:26:40.853Z,86.48
2023-02-04T07:29:12.207Z,87.50
2023-02-04T07:31:41.408Z,88.20
2023-02-04T07:34:08.122Z,87.94
2023-02-04T07:36:34.691Z,88.38
2023-02-04T07:39:01.219Z,87.64
2023-02-04T07:41:27.727Z,87.52
2023-02-04T07:43:54.112Z,87.10
2023-02-04T07:46:20.636Z,86.97
2023-02-04T07:48:47.128Z,86.77
2023-02-04T07:51:13.553Z,87.37
2023-02-04T07:53:39.976Z,87.11
2023-02-04T07:56:06.665Z,87.07
2023-02-04T07:58:33.209Z,87.68
2023-02-04T08:00:59.756Z,87.53
2023-02-04T08:03:26.166Z,87.86
2023-02-04T08:05:53.084Z,88.62
2023-02-04T08:08:20.267Z,88.47
2023-02-04T08:10:46.745Z,88.12
2023-02-04T08:13:13.595Z,100.00
2023-02-04T08:15:40.085Z,100.00
2023-02-04T08:18:06.678Z,92.41
2023-02-04T08:20:33.890Z,85.23
2023-02-04T08:23:00.582Z,83.24
2023-02-04T08:25:28.897Z,83.36
2023-02-04T08:27:55.876Z,82.78
2023-02-04T08:30:22.536Z,83.81
2023-02-04T08:32:48.965Z,84.40
2023-02-04T08:35:16.110Z,84.93
2023-02-04T08:37:42.553Z,85.27
2023-02-04T08:40:09.720Z,85.26
2023-02-04T08:42:36.669Z,85.08
2023-02-04T08:45:03.831Z,84.37
2023-02-04T08:47:30.248Z,82.03
2023-02-04T08:49:56.972Z,81.40
2023-02-04T08:52:23.747Z,78.61
2023-02-04T08:54:50.154Z,78.62
2023-02-04T08:57:16.607Z,78.89
2023-02-04T08:59:42.996Z,81.20
2023-02-04T09:02:10.293Z,81.81
2023-02-04T09:04:37.371Z,82.52
2023-02-04T09:07:03.895Z,83.07
2023-02-04T09:09:30.321Z,82.69
2023-02-04T09:11:56.872Z,82.50
2023-02-04T09:14:23.409Z,81.54
2023-02-04T09:16:49.925Z,81.88
2023-02-04T09:19:19.647Z,82.31
2023-02-04T09:21:46.055Z,82.77
2023-02-04T09:24:12.454Z,83.01
2023-02-04T09:26:38.915Z,82.65
2023-02-04T09:29:05.332Z,82.24
2023-02-04T09:31:31.901Z,83.14
2023-02-04T09:33:59.940Z,82.86
2023-02-04T09:36:29.669Z,83.16
2023-02-04T09:38:56.340Z,83.09
2023-02-04T09:41:22.877Z,83.44
2023-02-04T09:43:50.132Z,83.74
2023-02-04T09:46:23.705Z,82.92
2023-02-04T09:48:50.970Z,83.14
2023-02-04T09:51:20.982Z,82.96
2023-02-04T09:53:48.894Z,82.88
2023-02-04T09:56:15.412Z,83.13
2023-02-04T09:58:42.309Z,83.48
2023-02-04T10:01:17.676Z,83.84
2023-02-04T10:03:46.979Z,83.17
2023-02-04T10:06:20.390Z,83.14
2023-02-04T10:08:49.684Z,82.19
2023-02-04T10:11:18.621Z,82.18
2023-02-04T10:13:50.885Z,81.71
2023-02-04T10:16:29.588Z,81.51
2023-02-04T10:19:01.742Z,81.36
2023-02-04T10:21:32.099Z,81.30
2023-02-04T10:24:01.184Z,78.61
2023-02-04T10:26:30.188Z,78.96
2023-02-04T10:33:11.098Z,78.50
2023-02-04T10:35:48.209Z,76.31
2023-02-04T10:38:14.750Z,76.07
2023-02-04T10:40:41.788Z,77.13
2023-02-04T10:43:11.279Z,78.31
2023-02-04T10:45:38.720Z,75.59
2023-02-04T10:48:05.636Z,74.31
2023-02-04T10:50:32.652Z,74.97
2023-02-04T10:53:20.281Z,76.38
2023-02-04T10:55:49.190Z,74.01
2023-02-04T10:58:22.380Z,72.62
2023-02-04T11:00:48.848Z,73.32
2023-02-04T11:03:22.440Z,74.33
2023-02-04T11:05:49.353Z,73.88
2023-02-04T11:08:23.110Z,73.56
2023-02-04T11:10:58.158Z,72.47
2023-02-04T11:14:05.477Z,71.63
2023-02-04T11:16:36.966Z,71.47
2023-02-04T11:19:07.155Z,70.71
2023-02-04T11:21:33.507Z,70.02
2023-02-04T11:24:22.932Z,71.44
2023-02-04T11:27:04.948Z,70.76
2023-02-04T11:29:38.717Z,70.60
2023-02-04T11:32:26.729Z,70.73
2023-02-04T11:34:55.763Z,70.86
2023-02-04T11:37:36.311Z,69.91
2023-02-04T11:40:20.955Z,70.22
2023-02-04T11:42:47.836Z,70.76
2023-02-04T11:45:25.427Z,70.15
2023-02-04T11:47:52.216Z,69.85
2023-02-04T11:50:33.861Z,70.39
2023-02-04T11:53:04.715Z,69.98
2023-02-04T11:55:35.089Z,69.84
2023-02-04T11:58:01.549Z,69.21
2023-02-04T12:00:33.170Z,69.15
2023-02-04T12:03:07.844Z,70.30
2023-02-04T12:05:44.147Z,69.92
2023-02-04T12:08:26.292Z,70.24
2023-02-04T12:10:58.500Z,70.37
2023-02-04T12:13:26.490Z,70.53
2023-02-04T12:16:05.394Z,70.83
2023-02-04T12:18:33.795Z,70.70
2023-02-04T12:21:01.074Z,68.29
2023-02-04T12:23:29.396Z,69.60
2023-02-04T12:25:56.057Z,70.80
2023-02-04T12:28:23.359Z,71.54
2023-02-04T12:30:50.199Z,70.04
2023-02-04T12:33:16.660Z,69.66
2023-02-04T12:35:43.230Z,67.97
2023-02-04T12:38:10.329Z,69.42
2023-02-04T12:40:37.476Z,69.36
2023-02-04T12:43:04.436Z,67.21
2023-02-04T12:45:31.533Z,67.35
2023-02-04T12:47:58.248Z,67.68
2023-02-04T12:50:26.049Z,67.91
2023-02-04T12:52:54.863Z,68.08
2023-02-04T12:55:22.773Z,67.19
2023-02-04T12:57:49.756Z,65.76
2023-02-04T13:00:18.307Z,62.79
2023-02-04T13:02:45.009Z,61.15
2023-02-04T13:05:11.970Z,62.95
2023-02-04T13:07:40.463Z,62.26
2023-02-04T13:10:08.981Z,63.76
2023-02-04T13:12:35.587Z,59.59
2023-02-04T13:15:02.068Z,58.23
2023-02-04T13:17:28.548Z,58.94
2023-02-04T13:19:55.000Z,59.00
2023-02-04T13:22:21.411Z,59.32
2023-02-04T13:24:47.891Z,59.24
2023-02-04T13:27:15.297Z,59.41
2023-02-04T13:29:42.075Z,61.09
2023-02-04T13:32:09.468Z,62.54
2023-02-04T13:34:36.301Z,61.29
2023-02-04T13:37:02.858Z,60.10
2023-02-04T13:39:29.872Z,60.52
2023-02-04T13:41:56.362Z,61.96
2023-02-04T13:44:22.801Z,60.65
2023-02-04T13:46:49.234Z,61.22
2023-02-04T13:49:15.740Z,59.47
2023-02-04T13:51:42.144Z,58.20
2023-02-04T13:54:08.689Z,59.42
2023-02-04T13:56:35.143Z,59.94
2023-02-04T13:59:01.884Z,59.03
2023-02-04T14:01:28.399Z,59.96
2023-02-04T14:03:54.967Z,59.49
2023-02-04T14:06:22.224Z,59.45
2023-02-04T14:08:48.816Z,59.45
2023-02-04T14:11:15.333Z,57.66
2023-02-04T14:13:41.842Z,59.95
2023-02-04T14:16:09.319Z,59.89
2023-02-04T14:18:35.867Z,60.38
2023-02-04T14:21:02.381Z,60.06
2023-02-04T14:23:28.888Z,58.91
2023-02-04T14:25:55.403Z,59.47
2023-02-04T14:28:21.993Z,58.49
2023-02-04T14:30:48.485Z,59.84
2023-02-04T14:33:15.849Z,59.87
2023-02-04T14:35:42.277Z,59.27
2023-02-04T14:38:09.174Z,59.67
2023-02-04T14:40:35.632Z,59.28
2023-02-04T14:43:02.061Z,58.89
2023-02-04T14:45:28.590Z,59.12
2023-02-04T14:47:57.023Z,60.36
2023-02-04T14:50:27.019Z,61.88
2023-02-04T14:52:54.416Z,63.00
2023-02-04T14:55:20.856Z,63.67
2023-02-04T14:57:47.267Z,63.91
2023-02-04T15:00:14.653Z,63.62
2023-02-04T15:02:42.232Z,64.62
2023-02-04T15:05:10.116Z,65.05
2023-02-04T15:07:37.206Z,65.81
2023-02-04T15:10:03.970Z,66.44
2023-02-04T15:12:30.390Z,67.29
2023-02-04T15:14:56.861Z,67.44
2023-02-04T15:17:24.324Z,67.39
2023-02-04T15:19:50.767Z,67.97
2023-02-04T15:22:17.160Z,68.01
2023-02-04T15:24:43.626Z,68.15
2023-02-04T15:27:10.128Z,68.86
2023-02-04T15:29:36.538Z,68.96
2023-02-04T15:32:03.047Z,70.01
2023-02-04T15:34:30.553Z,70.56
2023-02-04T15:36:56.987Z,70.81
2023-02-04T15:39:23.487Z,70.84
2023-02-04T15:41:50.215Z,71.11
2023-02-04T15:44:16.579Z,71.24
2023-02-04T15:46:43.019Z,72.18
2023-02-04T15:49:09.460Z,72.01
2023-02-04T15:51:35.984Z,71.82
2023-02-04T15:54:02.440Z,72.44
2023-02-04T15:56:28.901Z,72.14
2023-02-04T15:58:56.341Z,72.86
2023-02-04T16:01:22.824Z,73.38
2023-02-04T16:03:51.077Z,73.05
2023-02-04T16:06:17.529Z,72.59
2023-02-04T16:08:43.903Z,73.49
2023-02-04T16:11:10.390Z,73.55
2023-02-04T16:13:37.159Z,74.65
2023-02-04T16:16:03.718Z,75.09
2023-02-04T16:18:30.794Z,73.78
2023-02-04T16:20:57.206Z,73.86
2023-02-04T16:23:23.710Z,73.73
2023-02-04T16:25:50.234Z,73.27
2023-02-04T16:28:16.735Z,73.51
2023-02-04T16:30:43.685Z,74.39
2023-02-04T16:33:10.797Z,75.03
2023-02-04T16:35:58.440Z,75.42
2023-02-04T16:38:26.028Z,75.94
2023-02-04T16:40:52.999Z,75.50
2023-02-04T16:43:20.019Z,76.04
2023-02-04T16:45:47.477Z,75.53
2023-02-04T16:48:13.910Z,75.33
2023-02-04T16:50:40.444Z,76.24
2023-02-04T16:53:07.475Z,75.34
2023-02-04T16:55:34.998Z,76.13
2023-02-04T16:58:01.672Z,75.95
2023-02-04T17:00:28.390Z,76.13
2023-02-04T17:02:55.050Z,76.47
2023-02-04T17:05:21.584Z,76.95
2023-02-04T17:07:48.322Z,77.36
2023-02-04T17:10:15.099Z,77.32
2023-02-04T17:12:41.574Z,78.04
2023-02-04T17:15:08.524Z,78.52
2023-02-04T17:17:35.125Z,78.26
2023-02-04T17:20:01.571Z,78.51
2023-02-04T17:22:27.984Z,78.61
2023-02-04T17:24:55.461Z,78.62
2023-02-04T17:27:21.861Z,78.49
2023-02-04T17:29:48.493Z,77.99
2023-02-04T17:32:14.899Z,78.36
2023-02-04T17:34:41.344Z,77.97
2023-02-04T17:37:08.502Z,77.26
2023-02-04T17:39:34.939Z,77.58
2023-02-04T17:42:01.416Z,77.59
2023-02-04T17:44:28.470Z,77.35
2023-02-04T17:46:55.048Z,77.24
2023-02-04T17:49:21.521Z,77.91
2023-02-04T17:51:47.942Z,77.72
2023-02-04T17:54:14.590Z,78.24
2023-02-04T17:56:41.026Z,78.08
2023-02-04T17:59:11.739Z,78.41
2023-02-04T18:01:38.673Z,78.84
2023-02-04T18:04:11.862Z,78.46
2023-02-04T18:06:38.337Z,78.82
2023-02-04T18:09:11.879Z,78.71
2023-02-04T18:11:40.032Z,78.77
2023-02-04T18:14:20.587Z,78.54
2023-02-04T18:16:47.153Z,78.19
2023-02-04T18:19:29.937Z,78.08
2023-02-04T18:21:58.388Z,77.97
2023-02-04T18:24:30.232Z,78.18
2023-02-04T18:27:01.593Z,78.84
2023-02-04T18:29:40.513Z,78.40
2023-02-04T18:32:21.091Z,78.70
2023-02-04T18:34:55.650Z,79.35
2023-02-04T18:37:36.229Z,78.73
2023-02-04T18:40:08.836Z,79.52
2023-02-04T18:42:40.912Z,80.05
2023-02-04T18:45:27.138Z,80.14
2023-02-04T18:47:55.598Z,79.94
2023-02-04T18:50:28.070Z,79.90
2023-02-04T18:52:54.617Z,79.87
2023-02-04T18:55:31.906Z,80.40
2023-02-04T18:58:22.806Z,80.30
2023-02-04T19:00:53.059Z,79.88
2023-02-04T19:03:29.071Z,79.95
2023-02-04T19:05:58.450Z,79.96
2023-02-04T19:08:28.078Z,79.84
2023-02-04T19:10:57.495Z,80.46
2023-02-04T19:13:38.271Z,80.19
2023-02-04T19:16:14.312Z,80.32
2023-02-04T19:18:43.905Z,79.81
2023-02-04T19:21:21.695Z,80.27
2023-02-04T19:23:50.172Z,79.86
2023-02-04T19:26:29.022Z,80.08
2023-02-04T19:28:55.985Z,79.75
2023-02-04T19:31:22.522Z,80.05
2023-02-04T19:33:50.558Z,80.49
2023-02-04T19:36:37.917Z,80.13
2023-02-04T19:39:27.300Z,79.61
2023-02-04T19:41:54.079Z,79.67
2023-02-04T19:44:34.905Z,79.71
2023-02-04T19:47:26.271Z,80.07
2023-02-04T19:50:02.891Z,80.64
2023-02-04T19:52:34.839Z,80.34
2023-02-04T19:55:16.352Z,80.24
2023-02-04T19:57:44.755Z,80.00
2023-02-04T20:00:36.169Z,80.57
2023-02-04T20:03:14.553Z,79.98
2023-02-04T20:05:41.538Z,80.11
2023-02-04T20:08:39.782Z,79.55
2023-02-04T20:11:15.261Z,79.34
2023-02-04T20:13:41.675Z,78.98
2023-02-04T20:16:39.251Z,78.67
2023-02-04T20:19:37.770Z,78.87
2023-02-04T20:22:38.546Z,78.69
2023-02-04T20:25:34.180Z,79.04
2023-02-04T20:28:12.072Z,79.06
2023-02-04T20:30:38.651Z,79.09
2023-02-04T20:33:28.526Z,79.63
2023-02-04T20:36:26.010Z,80.61
2023-02-04T20:39:24.584Z,80.89
2023-02-04T20:41:51.274Z,80.67
2023-02-04T20:44:26.090Z,80.50
2023-02-04T20:46:58.181Z,80.92
2023-02-04T20:49:26.663Z,80.89
2023-02-04T20:52:00.055Z,80.40
2023-02-04T20:54:30.332Z,80.50
2023-02-04T20:57:15.382Z,79.71
2023-02-04T20:59:43.002Z,80.06
2023-02-04T21:02:21.049Z,79.76
2023-02-04T21:04:53.765Z,79.24
2023-02-04T21:07:22.431Z,79.83
2023-02-04T21:09:49.398Z,79.30
2023-02-04T21:12:16.571Z,78.81
2023-02-04T21:14:42.987Z,79.43
2023-02-04T21:17:09.456Z,80.31
2023-02-04T21:19:35.956Z,79.38
2023-02-04T21:22:02.518Z,79.96
2023-02-04T21:24:31.749Z,79.93
2023-02-04T21:26:58.709Z,79.65
2023-02-04T21:29:26.043Z,79.79
2023-02-04T21:31:54.362Z,80.54
2023-02-04T21:34:20.937Z,80.17
2023-02-04T21:36:47.439Z,81.16
2023-02-04T21:39:13.883Z,81.47
2023-02-04T21:41:40.372Z,82.04
2023-02-04T21:44:06.777Z,81.41
2023-02-04T21:46:33.273Z,81.03
2023-02-04T21:48:59.774Z,81.71
2023-02-04T21:51:28.311Z,81.36
2023-02-04T21:53:54.776Z,81.88
2023-02-04T21:56:22.214Z,81.41
2023-02-04T21:58:48.920Z,88.90
2023-02-04T22:01:15.371Z,83.48
2023-02-04T22:03:41.801Z,81.13
2023-02-04T22:06:08.344Z,80.65
2023-02-04T22:08:34.755Z,80.66
2023-02-04T22:11:01.258Z,81.14
2023-02-04T22:13:27.715Z,81.08
2023-02-04T22:15:54.166Z,81.27
2023-02-04T22:18:20.749Z,80.62
2023-02-04T22:20:47.283Z,80.47
2023-02-04T22:23:13.811Z,80.80
2023-02-04T22:25:40.289Z,81.50
2023-02-04T22:28:06.802Z,81.96
2023-02-04T22:30:33.364Z,81.19
2023-02-04T22:33:01.585Z,80.69
2023-02-04T22:35:29.808Z,80.87
2023-02-04T22:37:57.493Z,80.37
2023-02-04T22:40:23.986Z,80.71
2023-02-04T22:42:50.363Z,81.06
2023-02-04T22:45:16.949Z,80.17
2023-02-04T22:47:43.607Z,80.21
2023-02-04T22:50:10.319Z,79.92
2023-02-04T22:52:36.787Z,80.24
2023-02-04T22:55:04.480Z,80.01
2023-02-04T22:57:30.887Z,79.82
2023-02-04T22:59:57.404Z,80.11
2023-02-04T23:02:23.837Z,80.36
2023-02-04T23:04:51.053Z,80.88
2023-02-04T23:07:17.492Z,80.97
2023-02-04T23:09:43.995Z,81.42
2023-02-04T23:12:13.332Z,82.42
2023-02-04T23:14:42.811Z,82.13
2023-02-04T23:17:10.280Z,83.25
2023-02-04T23:19:36.975Z,82.87
2023-02-04T23:22:04.851Z,82.26
2023-02-04T23:24:31.575Z,82.51
2023-02-04T23:27:00.918Z,82.73
2023-02-04T23:29:28.472Z,82.87
2023-02-04T23:31:55.872Z,82.51
2023-02-04T23:34:22.498Z,82.49
2023-02-04T23:36:51.134Z,82.11
2023-02-04T23:39:21.015Z,82.48
2023-02-04T23:41:48.397Z,82.66
2023-02-04T23:44:15.165Z,82.61
2023-02-04T23:46:41.822Z,81.58
2023-02-04T23:49:08.716Z,81.32
2023-02-04T23:51:35.595Z,80.73
2023-02-04T23:54:02.113Z,81.17
2023-02-04T23:56:29.029Z,80.58
2023-02-04T23:58:55.742Z,80.75
